You must use a browser capable of displaying tables to view this page.

The table shows the data used to make the storm track maps. Click on the storm name in the first row to get a close up view of the storm track.

Name Date Time (UT) Lat (degrees) Lon (degrees) Course (true) Speed (knots) Pressure (mb) Wind (knots) Gusts (knots) Type Actual / Forecast WMO
NOCK-TEN 2011-07-26 00:00 14.1N 123.4E 275 09 ??? 035 045 STO ACT WTPN31
NOCK-TEN 2011-07-26 06:00 14.1N 123.3E 270 05 ??? 035 045 STO ACT WTPN31
NOCK-TEN 2011-07-26 12:00 14.5N 122.9E 295 05 ??? 035 045 STO ACT WTPN31
NOCK-TEN 2011-07-26 18:00 14.9N 122.6E 310 06 ??? 055 070 STO ACT WTPN31
NOCK-TEN 2011-07-27 00:00 15.6N 122.1E 320 06 ??? 065 080 TYP ACT WTPN31
NOCK-TEN 2011-07-27 06:00 16.2N 121.5E 315 08 ??? 055 070 STO ACT WTPN31
NOCK-TEN 2011-07-27 12:00 17.4N 120.4E 315 14 ??? 050 065 STO ACT WTPN31
NOCK-TEN 2011-07-27 18:00 18.1N 118.3E 305 17 ??? 050 065 STO ACT WTPN31
NOCK-TEN 2011-07-28 00:00 17.8N 116.5E 280 16 ??? 050 065 STO ACT WTPN31
NOCK-TEN 2011-07-28 06:00 18.0N 114.8E 275 16 ??? 050 065 STO ACT WTPN31
NOCK-TEN 2011-07-28 12:00 18.1N 113.5E 275 12 ??? 055 070 STO ACT WTPN31
NOCK-TEN 2011-07-28 18:00 18.0N 113.3E 285 11 ??? 055 070 STO ACT WTPN31
NOCK-TEN 2011-07-29 00:00 18.4N 112.3E 295 10 ??? 055 070 STO ACT WTPN31
NOCK-TEN 2011-07-29 06:00 18.8N 111.4E 295 09 ??? 055 070 STO ACT WTPN31
NOCK-TEN 2011-07-29 12:00 19.2N 109.8E 285 14 ??? 040 050 STO ACT WTPN31
NOCK-TEN 2011-07-29 18:00 20.3N 109.0E 305 16 ??? 040 050 STO ACT WTPN31
NOCK-TEN 2011-07-30 00:00 19.3N 108.0E 240 11 ??? 045 055 STO ACT WTPN31
NOCK-TEN 2011-07-30 06:00 19.6N 106.8E 260 11 ??? 040 050 STO ACT WTPN31
NOCK-TEN 2011-07-30 12:00 19.1N 105.5E 250 13 ??? 035 045 STO ACT WTPN31
NOCK-TEN 2011-07-31 00:00 18.8N 103.6E ??? ??? ??? 020 030 ??? FOR WTPN31
NOCK-TEN 2011-07-31 12:00 18.8N 102.7E ??? ??? ??? 015 025 ??? FOR WTPN31


Home Back

metcalf@akala.ifa.hawaii.edu